Aérodrome :
LOGIN :

S'inscrire | Disclaimer

   EN    FR    IT 

 










Légende :    VFR   VFR Marginal   IFR   IFR Intensif   IFR Très Intensif
Visi : 
Plafond : 
>= 8 km
>= 3000ft
5 à 8 km
1000 à 3000 ft
1500m à 5 km
500 à 1000 ft
800 à 1500m
200 à 500 ft
< 800m
< 200 ft
Symboles :   Orages  Brouillard  Fortes neiges  Fortes précipitations  Vent > 20 kt
SIGMETs :   Divers  Orages  Givrage  Turbulence  Onde Orograph.  Cendres Volcan.






- Altitude de l'aérodrome : 876 ft
- Code IATA : MBX


LJMB - Maribor

DERNIER METAR :
  • 251930Z AUTO VRB02KT 9999 RA FEW016/// OVC049/// 15/14 Q1019 RERA

METARs EXPIRÉS :
  • 251900Z AUTO 03004KT 340V100 9999 -RA FEW015/// BKN049/// 16/14 Q1018 RERA
  • 251830Z AUTO 35007KT 9999 -SHRA FEW013/// BKN063/// BKN160/// 16/14 Q1018 RESHRA
  • 251800Z AUTO 33004KT 290V050 9999 -SHRA FEW014/// BKN050/// 16/14 Q1017
  • 251730Z AUTO 04007KT 010V070 9999 FEW014/// BKN050/// 16/14 Q1017
  • 251700Z AUTO 04008KT 010V070 9999 SCT014/// BKN047/// 16/14 Q1017

TAF TAF LJMB
Valide du 25 à 18h jusqu'au 26 à 18h UTC


251700Z 2518/2618 36005KT 9999 FEW050
TEMPO 2518/2520 5000 TSRA SCT050CB
PROB30
TEMPO 2523/2603 SHRA SCT050TCU



MET'MAP, la Météo Aéronautique d'un coup d'oeil ! - Copyright ORBIFLY Décembre 2007 - Disclaimer

ORBIFLY MET'MAP TEAM :

Programmation & Développement : Alexandra Zaïnal
Sur une idée originale de : Baudouin d'Aumeries
Soutien technique & logistique : Manuel Goepfert
Assistance : Marc-Olivier Méhu

Contact : metmap@orbifly.com




SOURCES & CREDITS :

   NOAA